Terminal Aerodrome Forecast
Issued by NWS

Home | Current Version | Previous Version | Text Only | Print | Product List | Glossary On
Versions: 1 2 3 4 5 6 7 8 9 10 11 12 13 14 15 16 17 18 19 20 21 22 23 24 25 26
000
FTUS44 KOUN 271131
TAFHBR
TAF
KHBR 271131Z 2712/2812 VRB05KT P6SM VCSH SCT070
     FM271500 19010G15KT P6SM BKN040
     FM271800 18014G20KT P6SM BKN250 PROB30 2721/2724 3SM TSRA
      BKN030CB BKN090
     FM280000 13011KT P6SM OVC040 PROB30 2800/2806 2SM TSRA BKN025CB
      OVC060=

USA.gov is the U.S. government's official web portal to all federal, state and local government web resources and services.